Time;durP1;ratioP1;P1;durP2;ratioP2;P2;SDS_P1;SDS_P2;PMS_P1;PMS_P2;Temp;Humidity;BMP_temperature;BMP_pressure;BME280_temperature;BME280_humidity;BME280_pressure;Samples;Min_cycle;Max_cycle;Signal;HPM_P1;HPM_P2
2022/05/28 00:01:04;;;;;;;5.80;5.20;;;6.70;99.90;;;;;;5015047;28;20112;-61
2022/05/28 00:03:30;;;;;;;7.40;5.97;;;6.60;99.90;;;;;;5017714;28;20133;-61
2022/05/28 00:05:56;;;;;;;6.05;5.30;;;6.60;99.90;;;;;;5014455;28;20057;-61
2022/05/28 00:08:24;;;;;;;7.13;5.10;;;6.50;99.90;;;;;;5016461;28;20080;-61
2022/05/28 00:10:51;;;;;;;9.88;6.10;;;6.50;99.90;;;;;;4999353;28;20049;-61
2022/05/28 00:13:17;;;;;;;7.72;5.05;;;6.40;99.90;;;;;;5020063;28;20033;-61
2022/05/28 00:15:43;;;;;;;5.50;4.70;;;6.30;99.90;;;;;;5019103;28;20041;-60
2022/05/28 00:18:09;;;;;;;4.47;4.07;;;6.30;99.90;;;;;;5014448;28;20093;-62
2022/05/28 00:20:36;;;;;;;5.63;4.90;;;6.20;99.90;;;;;;5015671;28;21718;-60
2022/05/28 00:23:02;;;;;;;7.97;4.57;;;6.10;99.90;;;;;;5014479;28;20057;-61
2022/05/28 00:25:28;;;;;;;4.97;4.50;;;6.10;99.90;;;;;;5008716;28;20725;-61
2022/05/28 00:27:54;;;;;;;4.72;4.30;;;5.90;99.90;;;;;;5016885;28;20032;-60
2022/05/28 00:30:20;;;;;;;5.47;5.03;;;5.90;99.90;;;;;;5016632;28;20025;-61
2022/05/28 00:32:46;;;;;;;5.95;5.45;;;5.90;99.90;;;;;;5004216;28;20038;-60
2022/05/28 00:35:17;;;;;;;5.68;5.18;;;5.80;99.90;;;;;;5006581;28;20488;-60
2022/05/28 00:37:44;;;;;;;4.93;4.45;;;5.80;99.90;;;;;;5002645;28;20392;-61
2022/05/28 00:40:14;;;;;;;7.05;6.35;;;5.80;99.90;;;;;;5012579;28;20034;-61
2022/05/28 00:42:40;;;;;;;14.15;6.82;;;5.80;99.90;;;;;;5018077;28;20420;-61
2022/05/28 00:45:06;;;;;;;8.35;7.70;;;5.80;99.90;;;;;;5017266;28;20025;-61
2022/05/28 00:47:32;;;;;;;9.02;8.02;;;5.80;99.90;;;;;;5016417;28;20029;-61
2022/05/28 00:49:58;;;;;;;10.10;7.75;;;5.80;99.90;;;;;;5013911;28;20035;-61
2022/05/28 00:52:26;;;;;;;8.07;7.07;;;5.70;99.90;;;;;;5000265;28;20017;-61
2022/05/28 00:54:52;;;;;;;7.70;6.90;;;5.70;99.90;;;;;;5017469;28;20022;-60
2022/05/28 00:57:20;;;;;;;19.58;8.13;;;5.60;99.90;;;;;;5005496;28;20026;-60
2022/05/28 00:59:46;;;;;;;8.68;6.35;;;5.60;99.90;;;;;;5012329;28;20149;-60
2022/05/28 01:02:24;;;;;;;6.47;6.00;;;5.60;99.90;;;;;;5018853;28;20113;-60
2022/05/28 01:05:06;;;;;;;10.82;7.70;;;5.60;99.90;;;;;;5020999;28;20392;-61
2022/05/28 01:07:34;;;;;;;11.95;8.15;;;5.50;99.90;;;;;;5022667;28;20034;-60
2022/05/28 01:10:22;;;;;;;12.65;8.32;;;5.50;99.90;;;;;;5007139;28;20020;-60
2022/05/28 01:13:02;;;;;;;11.60;8.05;;;5.40;99.90;;;;;;5018616;28;20529;-60
2022/05/28 01:15:36;;;;;;;9.05;8.15;;;5.40;99.90;;;;;;5018706;28;20081;-61
2022/05/28 01:18:34;;;;;;;10.48;9.45;;;5.30;99.90;;;;;;5020556;28;20026;-60
2022/05/28 01:21:05;;;;;;;9.77;8.82;;;5.30;99.90;;;;;;5015530;28;20499;-61
2022/05/28 01:23:55;;;;;;;8.65;7.80;;;5.30;99.90;;;;;;5018512;28;20057;-61
2022/05/28 01:26:28;;;;;;;13.27;8.35;;;5.30;99.90;;;;;;5022588;28;20033;-61
2022/05/28 01:29:01;;;;;;;11.45;8.63;;;5.30;99.90;;;;;;5024631;28;20036;-60
2022/05/28 01:31:28;;;;;;;14.63;8.82;;;5.30;99.90;;;;;;5021164;28;20021;-60
2022/05/28 01:33:55;;;;;;;11.35;7.57;;;5.30;99.90;;;;;;5021932;28;20034;-60
2022/05/28 01:36:22;;;;;;;11.40;7.97;;;5.30;99.90;;;;;;5020777;28;20087;-61
2022/05/28 01:38:49;;;;;;;15.73;8.20;;;5.30;99.90;;;;;;5021812;28;20029;-61
2022/05/28 01:41:16;;;;;;;12.23;8.57;;;5.30;99.90;;;;;;5018166;28;20029;-61
2022/05/28 01:43:45;;;;;;;10.02;9.13;;;5.30;99.90;;;;;;5021084;28;20089;-61
2022/05/28 01:46:13;;;;;;;10.73;9.13;;;5.30;99.90;;;;;;5003237;28;20029;-60
2022/05/28 01:48:41;;;;;;;13.23;8.88;;;5.30;99.90;;;;;;5020142;28;20101;-61
2022/05/28 01:51:09;;;;;;;12.88;9.00;;;5.30;99.90;;;;;;5021426;28;20021;-60
2022/05/28 01:56:21;;;;;;;12.23;9.18;;;5.30;99.90;;;;;;5018369;28;20548;-60
2022/05/28 01:58:47;;;;;;;10.50;9.13;;;5.30;99.90;;;;;;5021076;28;20037;-60
2022/05/28 02:01:13;;;;;;;13.43;9.02;;;5.30;99.90;;;;;;5001736;28;20162;-60
2022/05/28 02:03:45;;;;;;;18.73;9.93;;;5.20;99.90;;;;;;5019722;28;20117;-60
2022/05/28 02:06:11;;;;;;;12.45;9.98;;;5.20;99.90;;;;;;5017873;28;20026;-60
2022/05/28 02:08:40;;;;;;;11.25;8.65;;;5.20;99.90;;;;;;5026814;28;20036;-60
2022/05/28 02:11:18;;;;;;;13.88;9.88;;;5.10;99.90;;;;;;5017071;28;20038;-60
2022/05/28 02:13:49;;;;;;;11.82;7.55;;;5.10;99.90;;;;;;5019368;28;20488;-60
2022/05/28 02:16:21;;;;;;;12.95;7.70;;;5.10;99.90;;;;;;5019794;28;20755;-60
2022/05/28 02:18:55;;;;;;;14.50;8.05;;;5.00;99.90;;;;;;5020583;28;20044;-61
2022/05/28 02:22:07;;;;;;;14.40;7.90;;;5.00;99.90;;;;;;5016453;28;20105;-60
2022/05/28 02:24:41;;;;;;;10.75;7.32;;;4.90;99.90;;;;;;4984105;28;20541;-60
2022/05/28 02:27:16;;;;;;;7.82;7.22;;;4.90;99.90;;;;;;5017039;28;20080;-60
2022/05/28 02:29:45;;;;;;;19.05;7.50;;;4.80;99.90;;;;;;5019247;28;20034;-61
2022/05/28 02:32:22;;;;;;;12.68;7.20;;;4.70;99.90;;;;;;5013836;28;20033;-60
2022/05/28 02:34:50;;;;;;;12.02;7.25;;;4.70;99.90;;;;;;5015477;28;20030;-61
2022/05/28 02:37:21;;;;;;;11.55;7.57;;;4.60;99.90;;;;;;5019823;28;20029;-60
2022/05/28 02:39:48;;;;;;;;;;;4.60;99.90;;;;;;5021163;28;20041;-60
2022/05/28 02:42:14;;;;;;;13.48;8.15;;;4.60;99.90;;;;;;5024692;28;19910;-60
2022/05/28 02:44:43;;;;;;;11.90;9.25;;;4.60;99.90;;;;;;5019957;28;20026;-60
2022/05/28 02:47:09;;;;;;;10.32;8.48;;;4.60;99.90;;;;;;5020636;28;20034;-61
2022/05/28 02:49:35;;;;;;;10.38;8.65;;;4.60;99.90;;;;;;5019314;28;20018;-61
2022/05/28 02:52:02;;;;;;;10.90;7.00;;;4.60;99.90;;;;;;5019531;28;20068;-60
2022/05/28 02:54:29;;;;;;;14.10;8.82;;;4.60;99.90;;;;;;5017970;28;20038;-60
2022/05/28 02:56:56;;;;;;;14.90;9.65;;;4.60;99.90;;;;;;5018176;28;20029;-61
2022/05/28 02:59:21;;;;;;;11.73;9.88;;;4.60;99.90;;;;;;5016858;28;20397;-61
2022/05/28 03:01:47;;;;;;;12.55;9.77;;;4.60;99.90;;;;;;5013904;28;20028;-60
2022/05/28 03:04:14;;;;;;;16.20;9.30;;;4.70;99.90;;;;;;5016717;28;20038;-60
2022/05/28 03:06:39;;;;;;;10.40;9.23;;;4.70;99.90;;;;;;5019971;28;20038;-60
2022/05/28 03:09:06;;;;;;;13.07;8.93;;;4.70;99.90;;;;;;5019235;28;20030;-60
2022/05/28 03:11:33;;;;;;;15.07;7.63;;;4.70;99.90;;;;;;5015354;28;20030;-61
2022/05/28 03:13:59;;;;;;;9.48;7.70;;;4.70;99.90;;;;;;5019937;28;20057;-60
2022/05/28 03:16:25;;;;;;;8.35;7.47;;;4.70;99.90;;;;;;5012769;28;20112;-60
2022/05/28 03:18:51;;;;;;;14.82;7.40;;;4.60;99.90;;;;;;5015029;28;20030;-60
2022/05/28 03:21:17;;;;;;;10.85;6.85;;;4.60;99.90;;;;;;5021160;28;20029;-60
2022/05/28 03:23:47;;;;;;;8.77;6.20;;;4.60;99.90;;;;;;5017322;28;20044;-61
2022/05/28 03:26:15;;;;;;;21.50;8.20;;;4.50;99.90;;;;;;5015701;28;20026;-61
2022/05/28 03:28:41;;;;;;;19.48;7.25;;;4.50;99.90;;;;;;5019219;28;20032;-60
2022/05/28 03:31:06;;;;;;;15.85;7.13;;;4.50;99.90;;;;;;5021515;28;20109;-60
2022/05/28 03:33:32;;;;;;;8.93;7.68;;;4.50;99.90;;;;;;5020245;28;20039;-60
2022/05/28 03:35:58;;;;;;;10.95;7.75;;;4.50;99.90;;;;;;5017177;28;20037;-60
2022/05/28 03:38:24;;;;;;;10.10;6.78;;;4.50;99.90;;;;;;5019009;28;20475;-60
2022/05/28 03:40:49;;;;;;;14.65;6.85;;;4.40;99.90;;;;;;5017979;28;20030;-61
2022/05/28 03:43:15;;;;;;;9.02;6.75;;;4.40;99.90;;;;;;5020224;28;20032;-61
2022/05/28 03:45:41;;;;;;;8.10;7.15;;;4.40;99.90;;;;;;5024491;28;20026;-60
2022/05/28 03:48:10;;;;;;;7.20;6.28;;;4.40;99.90;;;;;;5016667;28;20505;-62
2022/05/28 03:50:35;;;;;;;8.75;5.68;;;4.50;99.90;;;;;;5018948;28;20061;-60
2022/05/28 03:53:01;;;;;;;16.27;7.20;;;4.50;99.90;;;;;;5013109;28;20057;-60
2022/05/28 03:55:27;;;;;;;7.68;5.80;;;4.50;99.90;;;;;;5015956;28;20515;-60
2022/05/28 03:57:53;;;;;;;8.45;6.18;;;4.50;99.90;;;;;;5018550;28;20025;-59
2022/05/28 04:00:19;;;;;;;7.40;5.55;;;4.60;99.90;;;;;;5018174;28;20030;-60
2022/05/28 04:02:45;;;;;;;6.22;5.63;;;4.60;99.90;;;;;;5018365;28;20026;-60
2022/05/28 04:05:11;;;;;;;6.57;5.53;;;4.60;99.90;;;;;;5016973;28;20025;-60
2022/05/28 04:07:37;;;;;;;6.32;4.85;;;4.60;99.90;;;;;;5021167;28;20097;-60
2022/05/28 04:10:05;;;;;;;7.50;6.80;;;4.60;99.90;;;;;;5018505;28;20073;-60
2022/05/28 04:12:30;;;;;;;6.97;6.25;;;4.60;99.90;;;;;;5013178;28;20034;-61
2022/05/28 04:14:56;;;;;;;9.52;6.10;;;4.60;99.90;;;;;;5016064;28;20025;-60
2022/05/28 04:17:22;;;;;;;7.47;5.85;;;4.70;99.90;;;;;;5016975;28;20038;-60
2022/05/28 04:19:48;;;;;;;10.63;5.93;;;4.80;99.90;;;;;;5002496;28;20535;-60
2022/05/28 04:22:13;;;;;;;10.15;6.30;;;4.90;99.90;;;;;;5016664;28;20026;-61
2022/05/28 04:24:39;;;;;;;6.45;5.95;;;5.10;99.90;;;;;;5018395;28;20045;-60
2022/05/28 04:27:06;;;;;;;7.70;5.63;;;5.30;99.90;;;;;;5015595;28;20037;-60
2022/05/28 04:29:31;;;;;;;6.57;5.88;;;5.50;99.90;;;;;;5018893;28;20174;-61
2022/05/28 04:31:57;;;;;;;7.40;5.30;;;5.70;99.90;;;;;;5019208;28;20070;-60
2022/05/28 04:34:23;;;;;;;8.93;4.97;;;5.80;99.90;;;;;;5021857;28;20022;-60
2022/05/28 04:36:48;;;;;;;15.23;4.57;;;6.00;99.90;;;;;;5020074;28;20025;-59
2022/05/28 04:39:14;;;;;;;10.50;5.75;;;6.20;99.90;;;;;;5021094;28;20112;-61
2022/05/28 04:41:40;;;;;;;10.77;5.13;;;6.20;99.90;;;;;;5021798;28;20041;-61
2022/05/28 04:44:06;;;;;;;8.10;4.45;;;6.20;99.90;;;;;;5022166;28;20030;-60
2022/05/28 04:46:34;;;;;;;10.35;5.13;;;6.20;99.90;;;;;;5023079;28;20061;-61
2022/05/28 04:49:00;;;;;;;11.00;4.88;;;6.30;99.90;;;;;;5021307;28;20029;-60
2022/05/28 04:51:25;;;;;;;10.68;5.30;;;6.30;99.90;;;;;;5021236;28;20033;-60
2022/05/28 04:53:51;;;;;;;11.63;5.07;;;6.40;99.90;;;;;;5017520;28;20041;-60
2022/05/28 04:56:16;;;;;;;5.75;5.13;;;6.60;99.90;;;;;;5018648;28;20515;-61
2022/05/28 04:58:43;;;;;;;7.13;3.65;;;6.70;99.90;;;;;;5023680;28;20523;-60
2022/05/28 05:01:17;;;;;;;8.13;3.55;;;6.80;99.90;;;;;;5011860;28;20380;-60
2022/05/28 05:03:43;;;;;;;8.90;3.42;;;7.50;99.90;;;;;;5022821;28;20128;-61
2022/05/28 05:06:09;;;;;;;7.53;1.90;;;8.40;99.90;;;;;;5023662;28;20100;-61
2022/05/28 05:08:34;;;;;;;2.88;1.63;;;9.80;99.90;;;;;;5019799;28;20030;-62
2022/05/28 05:11:00;;;;;;;3.53;1.48;;;11.00;99.90;;;;;;5021521;28;20097;-61
2022/05/28 05:13:26;;;;;;;5.25;1.55;;;12.50;99.90;;;;;;5026036;28;20030;-61
2022/05/28 05:15:52;;;;;;;5.45;1.30;;;14.00;99.90;;;;;;5022386;28;20026;-61
2022/05/28 05:18:18;;;;;;;2.63;0.98;;;15.40;99.90;;;;;;5020983;28;20036;-62
2022/05/28 05:20:44;;;;;;;5.10;1.40;;;16.60;99.90;;;;;;5016378;28;20113;-64
2022/05/28 05:23:10;;;;;;;5.03;1.13;;;17.60;99.90;;;;;;5004901;28;20056;-62
2022/05/28 05:25:36;;;;;;;4.43;1.00;;;18.40;96.10;;;;;;5018163;28;20450;-63
2022/05/28 05:28:02;;;;;;;3.22;1.02;;;19.20;79.00;;;;;;5018851;28;20037;-61
2022/05/28 05:30:28;;;;;;;4.05;1.35;;;19.70;73.70;;;;;;5017366;28;20140;-61
2022/05/28 05:32:54;;;;;;;4.90;1.48;;;20.20;71.60;;;;;;5022558;28;20370;-61
2022/05/28 05:35:19;;;;;;;3.38;0.90;;;20.80;66.60;;;;;;5017869;28;20059;-64
2022/05/28 05:37:45;;;;;;;4.88;1.20;;;21.10;64.20;;;;;;5018732;28;20080;-62
2022/05/28 05:40:11;;;;;;;4.55;1.23;;;21.30;62.00;;;;;;5020995;28;20072;-62
2022/05/28 05:42:37;;;;;;;7.40;1.75;;;21.40;62.80;;;;;;5020806;28;20053;-62
2022/05/28 05:45:03;;;;;;;4.50;1.35;;;21.30;59.50;;;;;;5019692;28;20049;-63
2022/05/28 05:47:29;;;;;;;4.97;0.90;;;21.00;59.50;;;;;;5021786;28;20030;-62
2022/05/28 05:49:55;;;;;;;4.05;1.17;;;20.50;61.20;;;;;;5017627;28;20069;-62
2022/05/28 05:52:20;;;;;;;3.53;1.00;;;19.70;64.10;;;;;;5020455;28;20056;-61
2022/05/28 05:54:46;;;;;;;2.92;1.20;;;18.60;68.40;;;;;;5019471;28;20749;-61
2022/05/28 05:57:12;;;;;;;2.97;1.05;;;17.60;76.30;;;;;;5021323;28;20037;-60
2022/05/28 05:59:38;;;;;;;4.70;1.30;;;17.00;90.20;;;;;;5018512;28;20116;-62
2022/05/28 06:02:06;;;;;;;5.30;1.20;;;16.30;95.40;;;;;;5020164;28;20036;-62
2022/05/28 06:04:32;;;;;;;5.75;1.20;;;15.80;99.90;;;;;;5021405;28;20065;-62
2022/05/28 06:06:58;;;;;;;6.97;1.35;;;15.30;99.90;;;;;;5020736;28;20064;-61
2022/05/28 06:09:23;;;;;;;5.13;1.10;;;14.70;99.90;;;;;;5020648;28;20030;-60
2022/05/28 06:11:49;;;;;;;13.73;1.55;;;14.50;99.90;;;;;;5008401;28;20044;-61
2022/05/28 06:14:15;;;;;;;6.82;1.30;;;14.50;99.90;;;;;;5018223;28;20037;-61
2022/05/28 06:16:40;;;;;;;6.60;1.55;;;14.60;99.90;;;;;;5006003;28;20067;-61
2022/05/28 06:19:08;;;;;;;4.60;1.20;;;14.70;99.90;;;;;;5019509;28;20485;-61
2022/05/28 06:21:34;;;;;;;3.40;1.30;;;14.40;99.90;;;;;;5020864;28;20034;-61
2022/05/28 06:24:01;;;;;;;5.88;1.15;;;14.20;99.90;;;;;;5020375;28;20026;-61
2022/05/28 06:26:27;;;;;;;5.18;1.40;;;14.20;99.90;;;;;;5020034;28;20034;-62
2022/05/28 06:28:53;;;;;;;6.18;1.48;;;14.60;99.90;;;;;;5020341;28;20026;-61
2022/05/28 06:31:19;;;;;;;4.53;1.00;;;15.00;99.90;;;;;;5022127;28;20478;-63
2022/05/28 06:33:45;;;;;;;5.38;1.60;;;15.10;99.90;;;;;;5016291;28;20022;-61
2022/05/28 06:36:12;;;;;;;8.90;1.58;;;14.90;99.90;;;;;;5017684;28;20061;-62
2022/05/28 06:38:38;;;;;;;5.15;1.48;;;14.80;99.90;;;;;;5003927;28;20041;-61
2022/05/28 06:41:05;;;;;;;5.15;1.70;;;14.70;99.90;;;;;;5019033;28;20093;-61
2022/05/28 06:43:31;;;;;;;4.20;1.48;;;14.70;99.90;;;;;;5011618;28;20026;-61
2022/05/28 06:46:04;;;;;;;5.43;1.40;;;14.70;99.90;;;;;;5016298;28;20516;-61
2022/05/28 06:48:30;;;;;;;4.18;1.27;;;14.70;99.90;;;;;;5019052;28;20034;-62
2022/05/28 06:51:01;;;;;;;4.30;1.35;;;14.60;99.90;;;;;;5014084;28;20458;-62
2022/05/28 06:53:29;;;;;;;5.40;1.30;;;14.40;99.90;;;;;;5018279;28;20081;-61
2022/05/28 06:55:55;;;;;;;4.43;1.30;;;14.20;99.90;;;;;;5015928;28;20068;-61
2022/05/28 06:58:21;;;;;;;6.53;1.60;;;13.90;99.90;;;;;;5018365;28;20477;-61
2022/05/28 07:00:46;;;;;;;9.98;1.52;;;13.50;99.90;;;;;;5020500;28;20740;-62
2022/05/28 07:03:19;;;;;;;6.32;1.35;;;13.40;99.90;;;;;;5015551;28;20148;-64
2022/05/28 07:05:46;;;;;;;4.70;1.25;;;13.20;99.90;;;;;;5016422;28;20037;-60
2022/05/28 07:08:12;;;;;;;6.22;1.58;;;13.00;99.90;;;;;;5015432;28;20034;-61
2022/05/28 07:10:48;;;;;;;5.22;1.40;;;12.80;99.90;;;;;;5017828;28;20492;-60
2022/05/28 07:13:15;;;;;;;4.53;1.52;;;12.50;99.90;;;;;;5007074;28;20022;-61
2022/05/28 07:15:43;;;;;;;6.75;1.85;;;12.40;99.90;;;;;;5019454;28;20030;-61
2022/05/28 07:18:09;;;;;;;4.07;1.33;;;12.20;99.90;;;;;;5004516;28;20485;-62
2022/05/28 07:20:35;;;;;;;6.40;1.58;;;12.10;99.90;;;;;;5016579;28;20042;-61
2022/05/28 07:23:12;;;;;;;8.75;1.45;;;12.10;99.90;;;;;;5016591;28;20533;-60
2022/05/28 07:25:38;;;;;;;5.25;1.33;;;12.20;99.90;;;;;;5017665;28;20611;-61
2022/05/28 07:28:24;;;;;;;5.63;1.65;;;12.30;99.90;;;;;;5017523;28;20021;-61
2022/05/28 07:30:59;;;;;;;5.43;1.52;;;12.70;99.90;;;;;;5015185;28;20032;-61
2022/05/28 07:33:26;;;;;;;4.05;1.17;;;13.30;99.90;;;;;;5017016;28;20565;-63
2022/05/28 07:35:54;;;;;;;4.50;1.25;;;14.10;99.90;;;;;;5002013;28;20057;-61
2022/05/28 07:38:21;;;;;;;5.60;1.25;;;14.60;96.60;;;;;;5011321;28;20026;-62
2022/05/28 07:40:47;;;;;;;4.50;1.33;;;14.80;95.50;;;;;;5002685;28;20036;-61
2022/05/28 07:43:13;;;;;;;6.50;1.10;;;14.80;93.20;;;;;;5018886;28;20095;-62
2022/05/28 07:45:41;;;;;;;4.18;1.10;;;15.40;93.10;;;;;;5015786;28;20496;-62
2022/05/28 07:48:16;;;;;;;5.15;1.20;;;16.70;91.30;;;;;;5019392;28;20045;-62
2022/05/28 07:50:43;;;;;;;4.60;1.35;;;18.80;80.00;;;;;;5020320;28;20033;-63
2022/05/28 07:53:09;;;;;;;6.30;1.20;;;20.70;70.20;;;;;;5012795;28;20022;-64
2022/05/28 07:55:36;;;;;;;3.53;1.02;;;22.60;62.20;;;;;;5013694;28;20029;-63
2022/05/28 07:58:14;;;;;;;3.50;1.10;;;23.90;56.70;;;;;;5018424;28;20021;-63
2022/05/28 08:00:42;;;;;;;2.97;1.00;;;24.70;55.40;;;;;;5014283;28;20037;-63
2022/05/28 08:03:08;;;;;;;3.40;1.10;;;25.40;52.10;;;;;;5014353;28;20046;-63
2022/05/28 08:05:35;;;;;;;4.22;1.00;;;26.20;52.30;;;;;;5015311;28;20563;-63
2022/05/28 08:08:02;;;;;;;4.85;1.25;;;25.90;50.50;;;;;;5015996;28;20041;-65
2022/05/28 08:10:27;;;;;;;3.53;1.45;;;25.20;49.90;;;;;;5016089;28;20033;-64
2022/05/28 08:12:53;;;;;;;3.80;1.33;;;24.50;51.30;;;;;;5013098;28;20037;-61
2022/05/28 08:15:18;;;;;;;3.72;1.30;;;23.50;52.70;;;;;;5018088;28;20026;-62
2022/05/28 08:17:47;;;;;;;2.88;0.73;;;23.20;53.60;;;;;;5005347;28;20437;-63
2022/05/28 08:20:12;;;;;;;3.47;0.93;;;23.60;54.20;;;;;;5017489;28;20025;-62
2022/05/28 08:25:22;;;;;;;4.00;1.40;;;25.30;50.10;;;;;;5011329;28;20049;-65
2022/05/28 08:27:47;;;;;;;3.53;1.05;;;25.90;46.90;;;;;;5023782;28;20037;-63
2022/05/28 08:30:13;;;;;;;4.10;0.93;;;25.20;48.10;;;;;;5019867;28;20022;-62
2022/05/28 08:32:39;;;;;;;4.03;0.90;;;23.80;49.70;;;;;;5016102;28;20030;-62
2022/05/28 08:35:05;;;;;;;3.60;1.08;;;22.80;52.50;;;;;;5013602;28;20037;-63
2022/05/28 08:37:30;;;;;;;3.10;1.05;;;21.30;55.00;;;;;;4999516;28;21185;-62
2022/05/28 08:39:56;;;;;;;6.30;1.00;;;20.00;56.00;;;;;;5005593;28;20497;-63
2022/05/28 08:42:26;;;;;;;4.30;1.05;;;19.10;59.10;;;;;;5019107;28;20042;-62
2022/05/28 08:44:54;;;;;;;2.33;0.90;;;18.40;62.10;;;;;;5011815;28;20129;-62
2022/05/28 08:47:25;;;;;;;4.10;1.23;;;17.80;65.50;;;;;;5015552;28;20022;-61
2022/05/28 08:49:52;;;;;;;7.60;1.10;;;17.50;67.90;;;;;;5017100;28;20034;-63
2022/05/28 08:52:24;;;;;;;3.58;1.10;;;17.00;71.80;;;;;;5012391;28;20026;-62
2022/05/28 08:54:59;;;;;;;4.00;1.20;;;16.50;74.60;;;;;;5013536;28;20385;-62
2022/05/28 08:57:57;;;;;;;4.45;1.15;;;16.20;76.10;;;;;;5014203;28;20030;-62
2022/05/28 09:00:41;;;;;;;4.60;1.13;;;15.80;78.60;;;;;;5018399;28;20092;-62
2022/05/28 09:03:17;;;;;;;5.95;1.42;;;15.70;84.80;;;;;;5006318;28;20716;-61
2022/05/28 09:06:06;;;;;;;3.40;1.20;;;15.50;88.50;;;;;;5017026;28;20029;-62
2022/05/28 09:08:43;;;;;;;6.10;1.33;;;16.10;90.60;;;;;;5002466;28;20026;-62
2022/05/28 09:11:21;;;;;;;2.63;1.02;;;17.50;80.90;;;;;;5018303;28;20036;-62
2022/05/28 09:13:50;;;;;;;3.22;1.02;;;19.20;77.00;;;;;;5013118;28;20109;-63
2022/05/28 09:16:39;;;;;;;3.97;1.08;;;21.10;67.00;;;;;;5015467;28;20508;-62
2022/05/28 09:19:10;;;;;;;2.38;0.82;;;22.60;60.60;;;;;;5019888;28;20517;-63
2022/05/28 09:21:38;;;;;;;3.08;1.08;;;23.40;56.10;;;;;;5013506;28;20045;-63
2022/05/28 09:24:09;;;;;;;1.38;0.80;;;23.70;54.30;;;;;;5020890;28;20105;-63
2022/05/28 09:26:56;;;;;;;2.20;0.82;;;24.10;51.90;;;;;;5019395;28;20022;-63
2022/05/28 09:29:24;;;;;;;3.03;0.98;;;24.80;50.90;;;;;;5022756;28;20051;-63
2022/05/28 09:32:19;;;;;;;5.18;0.90;;;25.40;47.90;;;;;;5019220;28;20018;-63
2022/05/28 09:35:18;;;;;;;2.47;0.90;;;25.70;46.40;;;;;;5018728;28;20704;-62
2022/05/28 09:38:03;;;;;;;4.93;0.80;;;26.00;46.30;;;;;;5019054;28;20392;-63
2022/05/28 09:40:53;;;;;;;2.00;0.70;;;25.40;45.90;;;;;;5021585;28;20107;-63
2022/05/28 09:43:44;;;;;;;2.10;0.80;;;25.10;46.10;;;;;;5019131;28;20072;-63
2022/05/28 09:46:36;;;;;;;2.05;0.65;;;25.30;46.90;;;;;;5021224;28;20057;-64
2022/05/28 09:49:14;;;;;;;2.80;0.80;;;25.60;48.10;;;;;;5019302;28;20037;-63
2022/05/28 09:51:52;;;;;;;1.95;0.90;;;24.90;46.50;;;;;;5020475;28;20056;-63
2022/05/28 09:54:30;;;;;;;3.33;0.80;;;24.00;48.50;;;;;;5013763;28;20038;-63
2022/05/28 09:57:00;;;;;;;2.13;0.73;;;24.20;47.80;;;;;;5019195;28;20037;-62
2022/05/28 09:59:32;;;;;;;1.75;0.70;;;23.70;48.90;;;;;;5016886;28;20070;-62
2022/05/28 10:02:16;;;;;;;2.53;0.80;;;22.90;50.70;;;;;;5017398;28;20033;-62
2022/05/28 10:05:04;;;;;;;3.80;0.88;;;22.30;50.20;;;;;;5021582;28;20100;-62
2022/05/28 10:07:47;;;;;;;2.50;0.90;;;23.10;51.50;;;;;;5017125;28;20038;-63
2022/05/28 10:10:28;;;;;;;3.63;1.10;;;23.90;47.60;;;;;;4995134;28;20065;-62
2022/05/28 10:13:13;;;;;;;1.83;0.90;;;23.60;47.70;;;;;;5015104;28;20050;-62
2022/05/28 10:15:54;;;;;;;2.25;0.82;;;22.80;49.10;;;;;;5020828;28;20068;-65
2022/05/28 10:18:25;;;;;;;2.15;0.70;;;23.00;50.20;;;;;;5017473;28;20072;-62
2022/05/28 10:21:05;;;;;;;1.75;0.65;;;24.10;49.60;;;;;;5019093;28;20033;-64
2022/05/28 10:23:35;;;;;;;3.13;0.80;;;24.40;46.60;;;;;;5018136;28;20026;-65
2022/05/28 10:26:01;;;;;;;2.72;0.70;;;24.30;45.50;;;;;;5019148;28;20022;-63
2022/05/28 10:28:38;;;;;;;1.90;0.73;;;24.80;45.90;;;;;;5019538;28;20033;-65
2022/05/28 10:31:20;;;;;;;2.03;0.65;;;25.30;45.10;;;;;;4994760;28;20117;-62
2022/05/28 10:33:46;;;;;;;1.15;0.68;;;25.10;44.20;;;;;;5016566;28;20026;-63
2022/05/28 10:36:17;;;;;;;3.47;0.70;;;25.30;45.20;;;;;;5014963;28;20429;-63
2022/05/28 10:38:43;;;;;;;2.50;1.17;;;25.60;43.20;;;;;;5005194;28;20037;-63
2022/05/28 10:41:26;;;;;;;1.67;0.70;;;25.70;43.30;;;;;;5018123;28;20105;-62
2022/05/28 10:43:52;;;;;;;1.63;0.65;;;26.40;41.50;;;;;;5017053;28;20036;-63
2022/05/28 10:46:53;;;;;;;1.35;0.65;;;26.80;42.80;;;;;;5014190;28;20026;-66
2022/05/28 10:49:59;;;;;;;1.85;0.60;;;26.70;43.10;;;;;;4961329;28;20064;-63
2022/05/28 10:52:41;;;;;;;2.08;0.70;;;26.10;40.90;;;;;;5018549;28;20065;-64
2022/05/28 10:55:11;;;;;;;1.70;0.80;;;25.50;43.40;;;;;;5018607;28;20037;-63
2022/05/28 10:57:58;;;;;;;1.95;0.63;;;25.80;43.10;;;;;;5014959;28;20758;-64
2022/05/28 11:00:43;;;;;;;0.90;0.60;;;25.50;42.60;;;;;;5018741;28;20037;-62
2022/05/28 11:03:25;;;;;;;4.15;0.60;;;24.80;42.50;;;;;;5018912;28;20034;-62
2022/05/28 11:06:03;;;;;;;2.40;0.60;;;23.80;43.70;;;;;;5016202;28;20026;-63
2022/05/28 11:08:39;;;;;;;2.88;1.05;;;22.80;45.50;;;;;;5018496;28;20456;-62
2022/05/28 11:11:21;;;;;;;1.65;0.57;;;22.70;47.70;;;;;;5020594;28;20079;-64
2022/05/28 11:14:16;;;;;;;2.10;0.70;;;22.80;48.00;;;;;;5017223;28;20029;-62
2022/05/28 11:16:59;;;;;;;1.15;0.70;;;23.20;47.50;;;;;;5021314;28;20041;-63
2022/05/28 11:19:38;;;;;;;1.77;0.60;;;23.40;46.40;;;;;;5019417;28;20448;-62
2022/05/28 11:22:16;;;;;;;2.05;0.90;;;23.20;46.10;;;;;;4990914;28;20048;-62
2022/05/28 11:24:55;;;;;;;2.05;0.80;;;22.60;45.20;;;;;;5014542;28;20033;-61
2022/05/28 11:27:35;;;;;;;2.28;0.80;;;22.00;48.80;;;;;;5016498;28;20086;-62
2022/05/28 11:30:01;;;;;;;2.47;0.98;;;21.80;49.30;;;;;;5015993;28;20041;-62
2022/05/28 11:32:50;;;;;;;1.60;0.63;;;22.00;48.70;;;;;;5018178;28;20033;-62
2022/05/28 11:35:53;;;;;;;1.38;0.75;;;22.20;47.00;;;;;;4983832;28;20033;-62
2022/05/28 11:38:43;;;;;;;2.25;0.65;;;22.10;48.10;;;;;;5011872;28;20041;-62
2022/05/28 11:41:57;;;;;;;1.25;0.52;;;22.10;47.40;;;;;;5018839;28;20051;-63
2022/05/28 11:44:37;;;;;;;1.15;0.75;;;22.30;47.30;;;;;;4991316;28;20520;-64
2022/05/28 11:47:17;;;;;;;1.52;0.50;;;22.50;47.90;;;;;;5013508;28;20174;-64
2022/05/28 11:52:47;;;;;;;1.45;0.75;;;23.20;47.80;;;;;;5016969;28;20053;-61
2022/05/28 11:55:20;;;;;;;2.88;0.77;;;22.80;44.60;;;;;;5017730;28;20037;-62
2022/05/28 11:58:01;;;;;;;2.15;0.70;;;22.30;46.10;;;;;;5010254;28;20509;-61
2022/05/28 12:00:31;;;;;;;3.13;0.70;;;21.80;46.90;;;;;;5005418;28;20029;-61
2022/05/28 12:03:19;;;;;;;3.22;0.77;;;21.50;46.00;;;;;;5019763;28;20045;-61
2022/05/28 12:05:50;;;;;;;1.65;0.68;;;21.00;48.00;;;;;;5017869;28;20038;-61
2022/05/28 12:08:26;;;;;;;1.17;0.60;;;20.50;49.40;;;;;;5017528;28;20068;-62
2022/05/28 12:10:56;;;;;;;2.63;0.73;;;20.10;51.40;;;;;;5017364;28;20117;-63
2022/05/28 12:13:40;;;;;;;1.10;0.70;;;20.00;53.80;;;;;;5018924;28;20093;-64
2022/05/28 12:16:17;;;;;;;2.13;0.70;;;20.30;51.70;;;;;;5017094;28;20136;-63
2022/05/28 12:19:01;;;;;;;2.50;0.75;;;20.60;49.90;;;;;;5010871;28;20116;-62
2022/05/28 12:21:38;;;;;;;1.45;0.47;;;21.00;49.10;;;;;;5016399;28;20030;-62
2022/05/28 12:24:18;;;;;;;0.93;0.50;;;21.30;49.10;;;;;;5016790;28;20164;-61
2022/05/28 12:27:13;;;;;;;1.88;0.45;;;21.70;49.40;;;;;;5015634;28;20690;-62
2022/05/28 12:30:02;;;;;;;1.80;0.65;;;22.20;50.40;;;;;;4991191;28;20045;-63
2022/05/28 12:32:46;;;;;;;3.30;0.65;;;22.50;45.80;;;;;;5018849;28;20025;-61
2022/05/28 12:35:14;;;;;;;3.60;0.60;;;22.30;46.00;;;;;;5019420;28;20040;-63
2022/05/28 12:37:43;;;;;;;2.47;0.63;;;22.20;46.50;;;;;;5015134;28;20053;-62
2022/05/28 12:40:30;;;;;;;2.38;0.70;;;21.60;47.50;;;;;;5013789;28;20033;-61
2022/05/28 12:43:10;;;;;;;3.45;0.70;;;21.20;48.10;;;;;;5011525;28;20037;-63
2022/05/28 12:45:39;;;;;;;2.08;0.75;;;21.00;50.60;;;;;;5013932;28;20073;-62
2022/05/28 12:48:06;;;;;;;1.08;0.63;;;21.20;49.20;;;;;;5015575;28;20492;-62
2022/05/28 12:50:59;;;;;;;1.92;0.68;;;21.50;51.60;;;;;;5015101;28;20042;-61
2022/05/28 12:53:26;;;;;;;1.23;0.52;;;21.80;49.40;;;;;;5017373;28;20034;-62
2022/05/28 12:56:06;;;;;;;2.65;0.77;;;21.60;47.80;;;;;;5019065;28;20030;-61
2022/05/28 12:58:33;;;;;;;3.05;0.70;;;21.10;48.30;;;;;;5018420;28;20489;-63
2022/05/28 13:01:03;;;;;;;2.63;0.80;;;20.80;49.20;;;;;;5021877;28;20021;-62
2022/05/28 13:03:36;;;;;;;0.82;0.55;;;20.60;49.60;;;;;;5020459;28;20045;-62
2022/05/28 13:06:22;;;;;;;3.65;0.63;;;20.70;48.60;;;;;;5019308;28;20101;-64
2022/05/28 13:09:13;;;;;;;3.88;0.50;;;20.90;48.00;;;;;;5022689;28;20025;-63
2022/05/28 13:11:47;;;;;;;2.05;0.75;;;21.10;46.80;;;;;;5018723;28;20429;-64
2022/05/28 13:14:34;;;;;;;2.28;0.70;;;20.90;45.10;;;;;;5017556;28;20028;-62
2022/05/28 13:17:34;;;;;;;1.45;0.52;;;20.90;47.00;;;;;;5017664;28;20039;-64
2022/05/28 13:20:32;;;;;;;1.48;0.45;;;20.90;46.50;;;;;;5014158;28;20576;-62